Lyons, NY

2:34 PM EDT on August 31, 2015 (GMT -0400)
Shop | | Change Station
CLOSE
Current Station
Personal Weather Station
Location: Newark, NY
Elevation: 564 ft
Nearby Weather Stations

Elev 564 ft 43.01 °N, 77.11 °W | Updated 2 minutes ago

Partly Cloudy
Partly Cloudy
84.6 °F
Feels Like 89 °F
N
12.0
Wind Variable Wind from SE
Gusts 15.0 mph

Today
High -- | Low -- °F
--% Chance of Precip.
Yesterday
High -- | Low -- °F
Precip. -- in
6:31 AM 7:45 PM
Waning Gibbous, 94% visible
Pressure 30.02 in
Visibility 8.0 miles
Clouds Few 4700 ft
Scattered Clouds 5500 ft
Heat Index 89 °F
Dew Point 70 °F
Humidity 61%
Rainfall in
Snow Depth Not available.
UV 7 out of 12
Pollen 10.50 out of 12
Air Quality Not available.
Flu Activity Not available.
METAR KPEO 311753Z AUTO 27010G16KT 8SM FEW047 SCT055 28/18 A3004 RMK AO2 SLP165 T02830178 10283 20206 58012
Pressure 30.02 in
Visibility 8.0 miles
Clouds Few 4700 ft
Scattered Clouds 5500 ft
Heat Index 89 °F
Dew Point 70 °F
Humidity 61%
Rainfall in
Snow Depth Not available.
UV 7 out of 12
Pollen 10.50 out of 12
Air Quality Not available.
Flu Activity Not available.
METAR KPEO 311753Z AUTO 27010G16KT 8SM FEW047 SCT055 28/18 A3004 RMK AO2 SLP165 T02830178 10283 20206 58012

10-Day Weather Forecast

×

Almanac

Astronomy

Aug. 31, 2015 Rise Set
Actual Time
Civil Twilight
Nautical Twilight
Astronomical Twilight
Moon
Length of Visible Light
Length of Day
Tomorrow will be .
, % of the Moon is Illuminated

Today's Extremes

State Highs State Lows

Community

WunderPhotos

Upload Photos

1,851,334 photos uploaded!

WunderBlogs® & News

Nearby

Air Quality

  Air Quality AQ Index Pollutant
Not available.

Snow Depth

Station Depth Elevation

Earthquake Activity

City Distance Mag. Time & Date
Minimum magnitude displayed is 2.5.

Coastal Water Temperatures

Place Temperature

Stations

Nearby Weather Stations

Station Location Temp. Windchill Dew Point Humidity Wind Precip. Elev Updated Type